createdAt,value
2022-11-13T00:01:20.556Z,102749.97
2022-11-13T00:04:05.674Z,102750.63
2022-11-13T00:06:54.794Z,102747.81
2022-11-13T00:09:43.031Z,102752.09
2022-11-13T00:12:29.162Z,102750.16
2022-11-13T00:15:14.441Z,102740.50
2022-11-13T00:18:03.386Z,102751.44
2022-11-13T00:20:48.118Z,102750.38
2022-11-13T00:23:34.819Z,102741.81
2022-11-13T00:26:22.282Z,102743.50
2022-11-13T00:29:07.157Z,102743.94
2022-11-13T00:31:52.116Z,102734.09
2022-11-13T00:34:52.289Z,102732.81
2022-11-13T00:37:37.406Z,102732.97
2022-11-13T00:40:22.209Z,102724.84
2022-11-13T00:43:07.214Z,102731.66
2022-11-13T00:45:52.483Z,102725.88
2022-11-13T00:48:37.806Z,102727.59
2022-11-13T00:51:23.033Z,102724.13
2022-11-13T00:54:07.942Z,102726.69
2022-11-13T00:56:52.815Z,102720.47
2022-11-13T00:59:37.618Z,102721.50
2022-11-13T01:02:22.542Z,102713.34
2022-11-13T01:05:07.463Z,102716.16
2022-11-13T01:07:52.840Z,102712.97
2022-11-13T01:10:53.162Z,102714.22
2022-11-13T01:13:40.257Z,102695.56
2022-11-13T01:16:27.605Z,102696.41
2022-11-13T01:19:12.568Z,102688.47
2022-11-13T01:21:57.363Z,102697.03
2022-11-13T01:24:42.466Z,102700.47
2022-11-13T01:27:27.607Z,102690.78
2022-11-13T01:30:12.677Z,102681.56
2022-11-13T01:32:57.446Z,102678.94
2022-11-13T01:35:42.442Z,102677.81
2022-11-13T01:38:27.491Z,102680.81
2022-11-13T01:41:28.007Z,102690.84
2022-11-13T01:44:15.297Z,102675.16
2022-11-13T01:47:00.446Z,102677.94
2022-11-13T01:49:46.598Z,102679.41
2022-11-13T01:52:38.788Z,102678.78
2022-11-13T01:55:24.148Z,102681.94
2022-11-13T01:58:11.536Z,102673.13
2022-11-13T02:00:56.841Z,102681.75
2022-11-13T02:03:41.856Z,102679.09
2022-11-13T02:06:33.079Z,102670.50
2022-11-13T02:09:20.599Z,102667.25
2022-11-13T02:12:10.241Z,102660.28
2022-11-13T02:14:58.113Z,102661.00
2022-11-13T02:17:47.498Z,102657.28
2022-11-13T02:20:45.092Z,102655.09
2022-11-13T02:24:01.236Z,102652.09
2022-11-13T02:26:45.980Z,102649.69
2022-11-13T02:29:31.116Z,102652.19
2022-11-13T02:32:16.291Z,102643.66
2022-11-13T02:35:01.417Z,102641.88
2022-11-13T02:37:46.504Z,102637.22
2022-11-13T02:40:33.122Z,102635.78
2022-11-13T02:43:18.168Z,102626.16
2022-11-13T02:46:03.209Z,102636.59
2022-11-13T02:48:48.458Z,102626.00
2022-11-13T02:51:33.554Z,102626.09
2022-11-13T02:54:18.706Z,102620.38
2022-11-13T02:57:03.587Z,102615.00
2022-11-13T02:59:48.855Z,102613.00
2022-11-13T03:02:33.922Z,102618.81
2022-11-13T03:05:19.063Z,102607.88
2022-11-13T03:08:05.692Z,102609.75
2022-11-13T03:10:50.485Z,102608.03
2022-11-13T03:13:35.934Z,102605.78
2022-11-13T03:16:20.828Z,102613.91
2022-11-13T03:19:05.712Z,102605.38
2022-11-13T03:21:50.960Z,102607.81
2022-11-13T03:24:36.084Z,102600.47
2022-11-13T03:27:21.434Z,102601.97
2022-11-13T03:30:07.002Z,102604.22
2022-11-13T03:32:55.929Z,102609.13
2022-11-13T03:35:46.660Z,102599.00
2022-11-13T03:38:32.383Z,102598.16
2022-11-13T03:41:17.558Z,102603.84
2022-11-13T03:44:02.747Z,102610.56
2022-11-13T03:46:47.568Z,102612.81
2022-11-13T03:49:32.544Z,102613.59
2022-11-13T03:52:17.309Z,102614.16
2022-11-13T03:55:02.199Z,102619.75
2022-11-13T03:57:47.865Z,102616.72
2022-11-13T04:00:33.133Z,102613.38
2022-11-13T04:03:18.089Z,102615.41
2022-11-13T04:06:02.898Z,102608.56
2022-11-13T04:08:47.843Z,102611.03
2022-11-13T04:11:33.168Z,102597.16
2022-11-13T04:14:18.184Z,102601.09
2022-11-13T04:17:02.976Z,102593.41
2022-11-13T04:19:47.807Z,102587.66
2022-11-13T04:22:33.402Z,102584.38
2022-11-13T04:25:18.522Z,102589.34
2022-11-13T04:28:03.559Z,102588.03
2022-11-13T04:30:48.366Z,102572.50
2022-11-13T04:33:33.277Z,102574.19
2022-11-13T04:36:18.186Z,102575.47
2022-11-13T04:39:03.404Z,102579.16
2022-11-13T04:42:07.344Z,102576.13
2022-11-13T04:44:52.425Z,102572.97
2022-11-13T04:47:37.318Z,102570.94
2022-11-13T04:50:23.496Z,102578.50
2022-11-13T04:53:08.511Z,102573.75
2022-11-13T04:55:53.594Z,102573.56
2022-11-13T04:58:38.804Z,102580.88
2022-11-13T05:01:23.642Z,102582.44
2022-11-13T05:04:12.245Z,102573.75
2022-11-13T05:06:57.295Z,102580.41
2022-11-13T05:09:42.209Z,102577.06
2022-11-13T05:12:27.169Z,102577.31
2022-11-13T05:15:12.136Z,102575.91
2022-11-13T05:17:56.925Z,102578.84
2022-11-13T05:20:41.756Z,102575.63
2022-11-13T05:23:26.845Z,102580.34
2022-11-13T05:26:13.527Z,102572.97
2022-11-13T05:28:59.642Z,102569.69
2022-11-13T05:31:45.013Z,102573.03
2022-11-13T05:34:30.056Z,102565.97
2022-11-13T05:37:15.056Z,102572.81
2022-11-13T05:40:00.216Z,102574.38
2022-11-13T05:42:45.190Z,102569.50
2022-11-13T05:45:30.352Z,102572.78
2022-11-13T05:48:15.550Z,102569.28
2022-11-13T05:51:24.984Z,102572.44
2022-11-13T05:54:11.128Z,102566.22
2022-11-13T05:56:55.978Z,102566.19
2022-11-13T05:59:41.120Z,102564.59
2022-11-13T06:02:26.072Z,102560.22
2022-11-13T06:05:11.002Z,102557.88
2022-11-13T06:07:55.882Z,102553.97
2022-11-13T06:10:40.701Z,102554.72
2022-11-13T06:13:25.826Z,102546.50
2022-11-13T06:16:16.948Z,102547.28
2022-11-13T06:19:05.435Z,102537.78
2022-11-13T06:21:50.759Z,102543.53
2022-11-13T06:24:35.840Z,102532.69
2022-11-13T06:27:20.811Z,102539.97
2022-11-13T06:30:06.181Z,102536.47
2022-11-13T06:32:54.543Z,102535.66
2022-11-13T06:35:39.453Z,102531.72
2022-11-13T06:38:24.271Z,102535.63
2022-11-13T06:41:12.054Z,102528.22
2022-11-13T06:44:02.665Z,102525.91
2022-11-13T06:46:48.506Z,102524.78
2022-11-13T06:49:33.386Z,102532.47
2022-11-13T06:52:18.302Z,102525.41
2022-11-13T06:55:03.578Z,102518.34
2022-11-13T06:57:48.541Z,102518.69
2022-11-13T07:00:36.978Z,102521.50
2022-11-13T07:03:26.023Z,102516.63
2022-11-13T07:06:16.536Z,102513.25
2022-11-13T07:09:01.577Z,102518.34
2022-11-13T07:11:46.595Z,102515.31
2022-11-13T07:14:31.502Z,102514.22
2022-11-13T07:17:16.522Z,102505.44
2022-11-13T07:20:01.426Z,102507.59
2022-11-13T07:22:46.342Z,102507.84
2022-11-13T07:25:32.066Z,102503.97
2022-11-13T07:28:16.881Z,102509.41
2022-11-13T07:31:01.723Z,102503.34
2022-11-13T07:33:49.158Z,102495.81
2022-11-13T07:36:34.297Z,102511.25
2022-11-13T07:39:19.206Z,102505.78
2022-11-13T07:42:04.183Z,102509.81
2022-11-13T07:44:54.655Z,102521.22
2022-11-13T07:47:40.796Z,102509.06
2022-11-13T07:50:28.350Z,102516.47
2022-11-13T07:53:13.418Z,102505.06
2022-11-13T07:56:04.994Z,102508.59
2022-11-13T07:58:49.878Z,102504.84
2022-11-13T08:01:34.909Z,102501.56
2022-11-13T08:04:19.740Z,102504.88
2022-11-13T08:07:05.385Z,102501.09
2022-11-13T08:09:50.464Z,102496.09
2022-11-13T08:12:35.818Z,102494.25
2022-11-13T08:15:20.668Z,102500.34
2022-11-13T08:18:05.928Z,102495.97
2022-11-13T08:20:50.838Z,102495.59
2022-11-13T08:23:35.593Z,102494.50
2022-11-13T08:26:20.646Z,102497.31
2022-11-13T08:29:05.292Z,102485.38
2022-11-13T08:31:50.278Z,102495.97
2022-11-13T08:34:36.935Z,102501.22
2022-11-13T08:37:22.058Z,102498.03
2022-11-13T08:40:07.349Z,102491.13
2022-11-13T08:43:39.807Z,102485.03
2022-11-13T08:46:24.874Z,102482.84
2022-11-13T08:49:09.705Z,102490.53
2022-11-13T08:51:54.707Z,102489.16
2022-11-13T08:54:39.585Z,102488.56
2022-11-13T08:57:24.498Z,102491.38
2022-11-13T09:00:10.274Z,102494.03
2022-11-13T09:02:57.198Z,102486.75
2022-11-13T09:05:42.362Z,102485.28
2022-11-13T09:08:29.840Z,102496.88
2022-11-13T09:11:15.018Z,102478.00
2022-11-13T09:14:00.190Z,102476.41
2022-11-13T09:16:45.307Z,102485.41
2022-11-13T09:19:30.174Z,102475.56
2022-11-13T09:22:15.109Z,102478.34
2022-11-13T09:25:00.096Z,102478.47
2022-11-13T09:27:52.486Z,102475.06
2022-11-13T09:30:39.804Z,102470.56
2022-11-13T09:33:24.896Z,102475.44
2022-11-13T09:36:14.455Z,102482.13
2022-11-13T09:39:00.821Z,102477.38
2022-11-13T09:41:54.394Z,102483.34
2022-11-13T09:44:47.682Z,102474.34
2022-11-13T09:47:41.290Z,102477.16
2022-11-13T09:50:29.660Z,102475.41
2022-11-13T09:53:15.742Z,102472.75
2022-11-13T09:56:14.911Z,102478.13
2022-11-13T09:59:22.487Z,102478.59
2022-11-13T10:02:23.063Z,102471.03
2022-11-13T10:05:22.929Z,102462.16
2022-11-13T10:08:19.052Z,102464.09
2022-11-13T10:11:37.409Z,102455.84
2022-11-13T10:14:32.932Z,102446.44
2022-11-13T10:17:30.774Z,102440.72
2022-11-13T10:20:22.455Z,102445.22
2022-11-13T10:23:30.060Z,102436.34
2022-11-13T10:26:18.442Z,102439.00
2022-11-13T10:29:12.558Z,102430.09
2022-11-13T10:31:59.363Z,102433.78
2022-11-13T10:34:48.846Z,102427.06
2022-11-13T10:37:55.242Z,102428.25
2022-11-13T10:40:40.796Z,102427.06
2022-11-13T10:43:26.756Z,102419.91
2022-11-13T10:46:24.573Z,102414.28
2022-11-13T10:49:29.006Z,102418.16
2022-11-13T10:52:27.760Z,102409.34
2022-11-13T10:55:37.568Z,102403.09
2022-11-13T10:58:22.855Z,102402.63
2022-11-13T11:01:23.772Z,102405.19
2022-11-13T11:04:21.425Z,102405.44
2022-11-13T11:07:21.804Z,102396.91
2022-11-13T11:10:33.395Z,102399.34
2022-11-13T11:13:23.482Z,102396.69
2022-11-13T11:16:12.557Z,102386.94
2022-11-13T11:19:02.537Z,102388.41
2022-11-13T11:21:51.323Z,102379.88
2022-11-13T11:24:42.166Z,102371.59
2022-11-13T11:27:35.050Z,102374.00
2022-11-13T11:30:22.971Z,102371.06
2022-11-13T11:33:19.626Z,102374.56
2022-11-13T11:36:08.932Z,102366.41
2022-11-13T11:39:25.509Z,102364.56
2022-11-13T11:42:34.495Z,102362.25
2022-11-13T11:45:34.051Z,102372.25
2022-11-13T11:48:21.899Z,102369.38
2022-11-13T11:51:35.627Z,102364.31
2022-11-13T11:54:40.118Z,102353.59
2022-11-13T11:57:41.578Z,102353.13
2022-11-13T12:00:31.058Z,102353.84
2022-11-13T12:03:44.043Z,102347.34
2022-11-13T12:07:00.876Z,102337.81
2022-11-13T12:10:13.979Z,102333.28
2022-11-13T12:13:13.746Z,102340.22
2022-11-13T12:16:10.902Z,102322.88
2022-11-13T12:19:04.403Z,102322.81
2022-11-13T12:22:06.737Z,102319.25
2022-11-13T12:25:27.764Z,102313.97
2022-11-13T12:28:20.441Z,102313.63
2022-11-13T12:31:41.469Z,102302.78
2022-11-13T12:34:34.641Z,102293.34
2022-11-13T12:37:35.415Z,102289.91
2022-11-13T12:40:28.896Z,102286.72
2022-11-13T12:43:51.176Z,102287.50
2022-11-13T12:46:38.792Z,102279.16
2022-11-13T12:49:23.824Z,102291.88
2022-11-13T12:52:22.711Z,102280.75
2022-11-13T12:55:25.780Z,102283.81
2022-11-13T12:58:20.890Z,102281.19
2022-11-13T13:01:17.398Z,102262.97
2022-11-13T13:04:30.488Z,102265.56
2022-11-13T13:07:48.518Z,102265.22
2022-11-13T13:11:00.640Z,102257.13
2022-11-13T13:14:05.972Z,102246.22
2022-11-13T13:16:51.148Z,102251.25
2022-11-13T13:19:35.966Z,102251.06
2022-11-13T13:22:30.287Z,102245.19
2022-11-13T13:25:31.611Z,102244.41
2022-11-13T13:28:24.255Z,102241.53
2022-11-13T13:31:12.053Z,102239.66
2022-11-13T13:34:19.315Z,102247.09
2022-11-13T13:37:21.433Z,102240.47
2022-11-13T13:40:29.763Z,102241.50
2022-11-13T13:43:29.956Z,102229.94
2022-11-13T13:46:21.813Z,102225.78
2022-11-13T13:49:13.638Z,102233.06
2022-11-13T13:51:58.603Z,102230.41
2022-11-13T13:54:45.362Z,102220.88
2022-11-13T13:57:30.449Z,102227.28
2022-11-13T14:00:17.948Z,102222.50
2022-11-13T14:03:03.949Z,102223.63
2022-11-13T14:05:48.902Z,102225.47
2022-11-13T14:08:34.270Z,102226.22
2022-11-13T14:11:22.697Z,102226.69
2022-11-13T14:14:22.120Z,102220.38
2022-11-13T14:17:09.993Z,102227.38
2022-11-13T14:20:00.561Z,102225.56
2022-11-13T14:22:56.516Z,102229.56
2022-11-13T14:25:43.311Z,102227.38
2022-11-13T14:28:31.184Z,102213.78
2022-11-13T14:31:16.674Z,102211.88
2022-11-13T14:34:08.141Z,102212.38
2022-11-13T14:36:53.160Z,102214.59
2022-11-13T14:39:37.966Z,102207.56
2022-11-13T14:42:28.368Z,102208.19
2022-11-13T14:45:16.580Z,102207.88
2022-11-13T14:48:04.855Z,102208.25
2022-11-13T14:50:56.457Z,102201.81
2022-11-13T14:53:42.366Z,102201.16
2022-11-13T14:56:33.348Z,102210.16
2022-11-13T14:59:26.998Z,102202.06
2022-11-13T15:02:12.704Z,102206.59
2022-11-13T15:04:57.923Z,102201.75
2022-11-13T15:07:45.660Z,102193.94
2022-11-13T15:10:31.301Z,102198.94
2022-11-13T15:13:17.889Z,102199.78
2022-11-13T15:16:03.249Z,102200.91
2022-11-13T15:19:04.463Z,102201.84
2022-11-13T15:22:20.406Z,102194.69
2022-11-13T15:24:54.509Z,102193.34
2022-11-13T15:27:43.096Z,102187.06
2022-11-13T15:30:28.161Z,102193.16
2022-11-13T15:33:15.018Z,102200.28
2022-11-13T15:36:00.157Z,102187.88
2022-11-13T15:38:45.648Z,102189.50
2022-11-13T15:41:32.953Z,102188.72
2022-11-13T15:44:17.941Z,102187.38
2022-11-13T15:47:02.787Z,102183.63
2022-11-13T15:50:09.847Z,102177.50
2022-11-13T15:52:54.663Z,102174.28
2022-11-13T15:55:41.238Z,102180.66
2022-11-13T15:58:29.309Z,102174.03
2022-11-13T16:01:19.481Z,102169.53
2022-11-13T16:04:06.026Z,102184.81
2022-11-13T16:06:51.183Z,102181.69
2022-11-13T16:09:36.060Z,102171.38
2022-11-13T16:12:21.111Z,102180.84
2022-11-13T16:15:06.914Z,102175.13
2022-11-13T16:17:54.303Z,102178.16
2022-11-13T16:20:39.169Z,102172.72
2022-11-13T16:23:24.626Z,102172.16
2022-11-13T16:26:14.890Z,102176.16
2022-11-13T16:29:13.109Z,102180.03
2022-11-13T16:31:59.030Z,102172.25
2022-11-13T16:34:46.080Z,102179.03
2022-11-13T16:37:31.321Z,102170.69
2022-11-13T16:40:22.564Z,102164.97
2022-11-13T16:43:07.882Z,102166.91
2022-11-13T16:45:53.280Z,102166.19
2022-11-13T16:48:38.549Z,102170.31
2022-11-13T16:51:23.642Z,102171.28
2022-11-13T16:54:08.838Z,102162.16
2022-11-13T16:56:53.857Z,102168.84
2022-11-13T16:59:39.321Z,102166.19
2022-11-13T17:02:24.497Z,102175.50
2022-11-13T17:05:14.393Z,102171.00
2022-11-13T17:08:00.131Z,102164.31
2022-11-13T17:10:45.392Z,102155.94
2022-11-13T17:13:30.836Z,102165.56
2022-11-13T17:16:17.101Z,102155.50
2022-11-13T17:19:02.209Z,102149.66
2022-11-13T17:21:47.128Z,102157.66
2022-11-13T17:24:32.145Z,102159.34
2022-11-13T17:27:17.919Z,102155.81
2022-11-13T17:30:03.281Z,102150.75
2022-11-13T17:32:50.559Z,102156.88
2022-11-13T17:35:35.718Z,102153.13
2022-11-13T17:38:20.774Z,102153.63
2022-11-13T17:41:10.965Z,102159.81
2022-11-13T17:44:00.903Z,102151.56
2022-11-13T17:46:47.199Z,102156.16
2022-11-13T17:49:32.601Z,102151.53
2022-11-13T17:52:17.467Z,102153.19
2022-11-13T17:55:05.994Z,102150.66
2022-11-13T17:57:51.228Z,102149.81
2022-11-13T18:00:36.155Z,102152.41
2022-11-13T18:03:21.229Z,102153.66
2022-11-13T18:06:08.787Z,102159.72
2022-11-13T18:08:53.874Z,102157.75
2022-11-13T18:11:38.772Z,102148.44
2022-11-13T18:14:23.804Z,102147.94
2022-11-13T18:17:08.770Z,102147.78
2022-11-13T18:20:01.353Z,102138.56
2022-11-13T18:22:46.776Z,102147.13
2022-11-13T18:25:38.508Z,102143.28
2022-11-13T18:28:24.895Z,102145.66
2022-11-13T18:31:12.934Z,102139.13
2022-11-13T18:33:59.521Z,102141.91
2022-11-13T18:36:50.863Z,102134.28
2022-11-13T18:39:35.938Z,102141.09
2022-11-13T18:42:20.754Z,102144.50
2022-11-13T18:45:06.548Z,102146.25
2022-11-13T18:47:51.648Z,102141.09
2022-11-13T18:50:36.762Z,102137.38
2022-11-13T18:53:21.906Z,102132.28
2022-11-13T18:56:10.246Z,102140.94
2022-11-13T18:58:56.417Z,102143.66
2022-11-13T19:01:45.155Z,102133.69
2022-11-13T19:04:32.005Z,102147.94
2022-11-13T19:07:17.368Z,102147.09
2022-11-13T19:10:03.101Z,102148.00
2022-11-13T19:12:48.562Z,102148.31
2022-11-13T19:15:38.196Z,102148.31
2022-11-13T19:18:23.543Z,102145.75
2022-11-13T19:21:11.991Z,102146.94
2022-11-13T19:23:58.630Z,102144.91
2022-11-13T19:26:44.429Z,102144.00
2022-11-13T19:29:29.367Z,102147.69
2022-11-13T19:32:14.470Z,102141.75
2022-11-13T19:34:59.751Z,102146.78
2022-11-13T19:37:44.930Z,102143.00
2022-11-13T19:40:30.030Z,102147.31
2022-11-13T19:43:14.949Z,102144.00
2022-11-13T19:46:08.285Z,102139.44
2022-11-13T19:48:53.690Z,102141.59
2022-11-13T19:51:38.566Z,102141.97
2022-11-13T19:54:23.596Z,102137.47
2022-11-13T19:57:11.325Z,102130.53
2022-11-13T19:59:56.566Z,102129.28
2022-11-13T20:02:41.415Z,102121.47
2022-11-13T20:05:26.285Z,102115.59
2022-11-13T20:08:12.747Z,102115.59
2022-11-13T20:11:03.071Z,102120.53
2022-11-13T20:13:48.081Z,102112.50
2022-11-13T20:16:33.221Z,102115.06
2022-11-13T20:19:18.409Z,102110.56
2022-11-13T20:22:03.272Z,102106.78
2022-11-13T20:24:48.536Z,102104.22
2022-11-13T20:27:36.951Z,102098.72
2022-11-13T20:30:22.170Z,102102.03
2022-11-13T20:33:07.138Z,102109.03
2022-11-13T20:35:55.188Z,102098.19
2022-11-13T20:38:41.111Z,102095.72
2022-11-13T20:41:26.227Z,102097.88
2022-11-13T20:44:12.303Z,102092.28
2022-11-13T20:46:57.398Z,102090.72
2022-11-13T20:49:42.253Z,102093.78
2022-11-13T20:52:27.167Z,102081.09
2022-11-13T20:55:12.042Z,102088.59
2022-11-13T20:57:57.173Z,102085.38
2022-11-13T21:00:42.295Z,102090.75
2022-11-13T21:03:27.442Z,102087.13
2022-11-13T21:06:15.913Z,102094.69
2022-11-13T21:09:01.728Z,102078.50
2022-11-13T21:11:46.907Z,102082.59
2022-11-13T21:14:31.985Z,102079.66
2022-11-13T21:17:16.867Z,102080.84
2022-11-13T21:20:02.485Z,102074.63
2022-11-13T21:22:47.661Z,102076.41
2022-11-13T21:25:32.518Z,102080.84
2022-11-13T21:28:22.440Z,102078.06
2022-11-13T21:31:17.798Z,102083.38
2022-11-13T21:34:03.922Z,102082.91
2022-11-13T21:36:49.248Z,102082.44
2022-11-13T21:39:34.612Z,102082.47
2022-11-13T21:43:26.285Z,102071.69
2022-11-13T21:46:12.442Z,102072.28
2022-11-13T21:48:59.851Z,102071.25
2022-11-13T21:51:44.764Z,102063.38
2022-11-13T21:54:29.595Z,102060.78
2022-11-13T21:57:14.521Z,102062.50
2022-11-13T21:59:59.463Z,102066.91
2022-11-13T22:02:44.340Z,102066.88
2022-11-13T22:05:29.354Z,102060.94
2022-11-13T22:08:14.532Z,102059.28
2022-11-13T22:10:59.824Z,102047.69
2022-11-13T22:13:44.658Z,102044.22
2022-11-13T22:16:32.310Z,102056.84
2022-11-13T22:19:25.266Z,102050.19
2022-11-13T22:22:12.371Z,102039.41
2022-11-13T22:24:57.186Z,102044.72
2022-11-13T22:27:42.106Z,102039.50
2022-11-13T22:30:27.237Z,102038.88
2022-11-13T22:33:12.254Z,102040.81
2022-11-13T22:36:05.635Z,102036.31
2022-11-13T22:38:51.286Z,102031.78
2022-11-13T22:41:36.797Z,102020.72
2022-11-13T22:44:22.100Z,102016.41
2022-11-13T22:47:07.218Z,102017.41
2022-11-13T22:49:52.172Z,102013.53
2022-11-13T22:52:37.066Z,102009.66
2022-11-13T22:55:22.123Z,102004.72
2022-11-13T22:58:07.134Z,102006.13
2022-11-13T23:00:51.945Z,102002.50
2022-11-13T23:03:38.534Z,102000.16
2022-11-13T23:06:26.763Z,102003.03
2022-11-13T23:09:11.905Z,102007.88
2022-11-13T23:11:56.783Z,101994.59
2022-11-13T23:14:41.616Z,101999.41
2022-11-13T23:17:26.634Z,101991.06
2022-11-13T23:20:12.208Z,101992.38
2022-11-13T23:22:57.278Z,101996.00
2022-11-13T23:25:42.170Z,101989.81
2022-11-13T23:28:28.461Z,101995.22
2022-11-13T23:31:14.230Z,101994.75
2022-11-13T23:33:59.241Z,101988.50
2022-11-13T23:36:44.226Z,101990.94
2022-11-13T23:39:29.150Z,101982.38
2022-11-13T23:42:14.002Z,101983.06
2022-11-13T23:44:58.907Z,101982.38
2022-11-13T23:47:43.922Z,101977.28
2022-11-13T23:50:29.200Z,101974.22
2022-11-13T23:53:14.114Z,101970.94
2022-11-13T23:55:59.178Z,101965.31
2022-11-13T23:58:44.196Z,101964.69
